<?xml version="1.0" encoding="UTF-8" standalone="no" ?>
<gpx xmlns="http://www.topografix.com/GPX/1/1" xmlns:xsi="http://www.w3.org/2001/XMLSchema-instance" xsi:schemaLocation="http://www.topografix.com/GPX/1/1 http://www.topografix.com/GPX/1/1/gpx.xsd" version="1.1" creator="VisuGPX - https://www.visugpx.com">
  <metadata>
    <name>Sortie VTT Chartreuse</name>
    <desc><![CDATA[Essai]]></desc>
  </metadata>
  <trk>
    <name><![CDATA[Sortie VTT Chartreuse_5]]></name>
    <trkseg>
      <trkpt lat="45.38643" lon="5.79786">
        <ele>1429</ele>
        <time>2008-10-25T08:59:07Z</time>
      </trkpt>
      <trkpt lat="45.38643" lon="5.79771">
        <ele>1426</ele>
        <time>2008-10-25T08:59:22Z</time>
      </trkpt>
      <trkpt lat="45.38643" lon="5.79728">
        <ele>1426</ele>
        <time>2008-10-25T08:59:34Z</time>
      </trkpt>
      <trkpt lat="45.38669" lon="5.7967">
        <ele>1423</ele>
        <time>2008-10-25T08:59:55Z</time>
      </trkpt>
      <trkpt lat="45.38684" lon="5.79645">
        <ele>1422</ele>
        <time>2008-10-25T09:00:03Z</time>
      </trkpt>
      <trkpt lat="45.3869" lon="5.79643">
        <ele>1423</ele>
        <time>2008-10-25T09:00:24Z</time>
      </trkpt>
      <trkpt lat="45.3869" lon="5.79628">
        <ele>1423</ele>
        <time>2008-10-25T09:00:51Z</time>
      </trkpt>
      <trkpt lat="45.3869" lon="5.79623">
        <ele>1423</ele>
        <time>2008-10-25T09:00:54Z</time>
      </trkpt>
      <trkpt lat="45.38693" lon="5.79604">
        <ele>1414</ele>
        <time>2008-10-25T09:01:12Z</time>
      </trkpt>
      <trkpt lat="45.38699" lon="5.79589">
        <ele>1412</ele>
        <time>2008-10-25T09:01:26Z</time>
      </trkpt>
      <trkpt lat="45.38708" lon="5.79578">
        <ele>1409</ele>
        <time>2008-10-25T09:01:42Z</time>
      </trkpt>
      <trkpt lat="45.38708" lon="5.79572">
        <ele>1408</ele>
        <time>2008-10-25T09:01:45Z</time>
      </trkpt>
      <trkpt lat="45.38733" lon="5.79559">
        <ele>1406</ele>
        <time>2008-10-25T09:02:03Z</time>
      </trkpt>
      <trkpt lat="45.38735" lon="5.79559">
        <ele>1406</ele>
        <time>2008-10-25T09:02:32Z</time>
      </trkpt>
      <trkpt lat="45.38774" lon="5.79567">
        <ele>1396</ele>
        <time>2008-10-25T09:02:49Z</time>
      </trkpt>
      <trkpt lat="45.38808" lon="5.79572">
        <ele>1387</ele>
        <time>2008-10-25T09:03:01Z</time>
      </trkpt>
      <trkpt lat="45.38832" lon="5.79578">
        <ele>1383</ele>
        <time>2008-10-25T09:03:17Z</time>
      </trkpt>
      <trkpt lat="45.38834" lon="5.79585">
        <ele>1381</ele>
        <time>2008-10-25T09:04:31Z</time>
      </trkpt>
      <trkpt lat="45.38849" lon="5.79591">
        <ele>1379</ele>
        <time>2008-10-25T09:06:18Z</time>
      </trkpt>
      <trkpt lat="45.3889" lon="5.79632">
        <ele>1378</ele>
        <time>2008-10-25T09:06:34Z</time>
      </trkpt>
      <trkpt lat="45.38937" lon="5.79653">
        <ele>1376</ele>
        <time>2008-10-25T09:06:54Z</time>
      </trkpt>
      <trkpt lat="45.3895" lon="5.79662">
        <ele>1373</ele>
        <time>2008-10-25T09:06:59Z</time>
      </trkpt>
      <trkpt lat="45.39004" lon="5.79658">
        <ele>1366</ele>
        <time>2008-10-25T09:07:18Z</time>
      </trkpt>
      <trkpt lat="45.39051" lon="5.79711">
        <ele>1360</ele>
        <time>2008-10-25T09:07:42Z</time>
      </trkpt>
      <trkpt lat="45.39066" lon="5.79726">
        <ele>1355</ele>
        <time>2008-10-25T09:07:58Z</time>
      </trkpt>
      <trkpt lat="45.39068" lon="5.79724">
        <ele>1353</ele>
        <time>2008-10-25T09:08:01Z</time>
      </trkpt>
      <trkpt lat="45.39085" lon="5.79718">
        <ele>1349</ele>
        <time>2008-10-25T09:08:14Z</time>
      </trkpt>
      <trkpt lat="45.39141" lon="5.79733">
        <ele>1334</ele>
        <time>2008-10-25T09:08:34Z</time>
      </trkpt>
      <trkpt lat="45.39233" lon="5.79763">
        <ele>1324</ele>
        <time>2008-10-25T09:08:59Z</time>
      </trkpt>
      <trkpt lat="45.39268" lon="5.79769">
        <ele>1319</ele>
        <time>2008-10-25T09:09:15Z</time>
      </trkpt>
      <trkpt lat="45.39278" lon="5.79767">
        <ele>1318</ele>
        <time>2008-10-25T09:09:19Z</time>
      </trkpt>
      <trkpt lat="45.39276" lon="5.79769">
        <ele>1318</ele>
        <time>2008-10-25T09:09:33Z</time>
      </trkpt>
      <trkpt lat="45.39285" lon="5.79763">
        <ele>1317</ele>
        <time>2008-10-25T09:09:46Z</time>
      </trkpt>
      <trkpt lat="45.393" lon="5.79761">
        <ele>1313</ele>
        <time>2008-10-25T09:10:01Z</time>
      </trkpt>
      <trkpt lat="45.39332" lon="5.79756">
        <ele>1306</ele>
        <time>2008-10-25T09:10:24Z</time>
      </trkpt>
      <trkpt lat="45.39375" lon="5.79825">
        <ele>1296</ele>
        <time>2008-10-25T09:10:53Z</time>
      </trkpt>
      <trkpt lat="45.39368" lon="5.79821">
        <ele>1294</ele>
        <time>2008-10-25T09:11:53Z</time>
      </trkpt>
      <trkpt lat="45.3939" lon="5.7978">
        <ele>1294</ele>
        <time>2008-10-25T09:12:10Z</time>
      </trkpt>
      <trkpt lat="45.39409" lon="5.79773">
        <ele>1291</ele>
        <time>2008-10-25T09:12:22Z</time>
      </trkpt>
      <trkpt lat="45.39416" lon="5.79767">
        <ele>1290</ele>
        <time>2008-10-25T09:12:30Z</time>
      </trkpt>
      <trkpt lat="45.39429" lon="5.79743">
        <ele>1281</ele>
        <time>2008-10-25T09:12:48Z</time>
      </trkpt>
      <trkpt lat="45.39484" lon="5.79724">
        <ele>1277</ele>
        <time>2008-10-25T09:13:16Z</time>
      </trkpt>
      <trkpt lat="45.39551" lon="5.79711">
        <ele>1276</ele>
        <time>2008-10-25T09:13:43Z</time>
      </trkpt>
      <trkpt lat="45.39632" lon="5.79724">
        <ele>1276</ele>
        <time>2008-10-25T09:14:09Z</time>
      </trkpt>
      <trkpt lat="45.39699" lon="5.79761">
        <ele>1276</ele>
        <time>2008-10-25T09:14:24Z</time>
      </trkpt>
      <trkpt lat="45.39795" lon="5.79767">
        <ele>1276</ele>
        <time>2008-10-25T09:14:44Z</time>
      </trkpt>
      <trkpt lat="45.39999" lon="5.7981">
        <ele>1276</ele>
        <time>2008-10-25T09:15:26Z</time>
      </trkpt>
      <trkpt lat="45.40147" lon="5.79876">
        <ele>1276</ele>
        <time>2008-10-25T09:15:59Z</time>
      </trkpt>
      <trkpt lat="45.40158" lon="5.79904">
        <ele>1120</ele>
        <time>2008-10-25T09:16:08Z</time>
      </trkpt>
      <trkpt lat="45.40158" lon="5.79904">
        <ele>1120</ele>
        <time>2008-10-25T09:16:09Z</time>
      </trkpt>
      <trkpt lat="45.40188" lon="5.79909">
        <ele>1122</ele>
        <time>2008-10-25T09:16:22Z</time>
      </trkpt>
      <trkpt lat="45.40229" lon="5.79952">
        <ele>1122</ele>
        <time>2008-10-25T09:16:34Z</time>
      </trkpt>
      <trkpt lat="45.40244" lon="5.79971">
        <ele>1122</ele>
        <time>2008-10-25T09:16:38Z</time>
      </trkpt>
      <trkpt lat="45.40272" lon="5.7999">
        <ele>1122</ele>
        <time>2008-10-25T09:16:44Z</time>
      </trkpt>
      <trkpt lat="45.40293" lon="5.80001">
        <ele>1122</ele>
        <time>2008-10-25T09:16:47Z</time>
      </trkpt>
      <trkpt lat="45.4034" lon="5.80007">
        <ele>1122</ele>
        <time>2008-10-25T09:16:52Z</time>
      </trkpt>
      <trkpt lat="45.4039" lon="5.79994">
        <ele>1122</ele>
        <time>2008-10-25T09:16:57Z</time>
      </trkpt>
      <trkpt lat="45.40446" lon="5.79997">
        <ele>1122</ele>
        <time>2008-10-25T09:17:02Z</time>
      </trkpt>
      <trkpt lat="45.40499" lon="5.80035">
        <ele>1120</ele>
        <time>2008-10-25T09:17:08Z</time>
      </trkpt>
      <trkpt lat="45.40551" lon="5.80108">
        <ele>1119</ele>
        <time>2008-10-25T09:17:15Z</time>
      </trkpt>
      <trkpt lat="45.40645" lon="5.8016">
        <ele>1116</ele>
        <time>2008-10-25T09:17:34Z</time>
      </trkpt>
      <trkpt lat="45.40677" lon="5.80177">
        <ele>1114</ele>
        <time>2008-10-25T09:17:39Z</time>
      </trkpt>
      <trkpt lat="45.40716" lon="5.80181">
        <ele>1110</ele>
        <time>2008-10-25T09:17:45Z</time>
      </trkpt>
      <trkpt lat="45.40735" lon="5.80143">
        <ele>1109</ele>
        <time>2008-10-25T09:17:54Z</time>
      </trkpt>
      <trkpt lat="45.40748" lon="5.80085">
        <ele>1112</ele>
        <time>2008-10-25T09:18:11Z</time>
      </trkpt>
      <trkpt lat="45.40767" lon="5.80035">
        <ele>1114</ele>
        <time>2008-10-25T09:18:31Z</time>
      </trkpt>
      <trkpt lat="45.40772" lon="5.79958">
        <ele>1117</ele>
        <time>2008-10-25T09:18:57Z</time>
      </trkpt>
      <trkpt lat="45.40815" lon="5.79907">
        <ele>1120</ele>
        <time>2008-10-25T09:19:22Z</time>
      </trkpt>
      <trkpt lat="45.40894" lon="5.7987">
        <ele>1126</ele>
        <time>2008-10-25T09:19:59Z</time>
      </trkpt>
      <trkpt lat="45.40939" lon="5.79857">
        <ele>1131</ele>
        <time>2008-10-25T09:20:25Z</time>
      </trkpt>
      <trkpt lat="45.40991" lon="5.79834">
        <ele>1137</ele>
        <time>2008-10-25T09:20:56Z</time>
      </trkpt>
      <trkpt lat="45.41029" lon="5.79804">
        <ele>1141</ele>
        <time>2008-10-25T09:21:23Z</time>
      </trkpt>
      <trkpt lat="45.41061" lon="5.79767">
        <ele>1145</ele>
        <time>2008-10-25T09:21:47Z</time>
      </trkpt>
      <trkpt lat="45.41057" lon="5.79743">
        <ele>1146</ele>
        <time>2008-10-25T09:21:57Z</time>
      </trkpt>
      <trkpt lat="45.41025" lon="5.79728">
        <ele>1149</ele>
        <time>2008-10-25T09:22:18Z</time>
      </trkpt>
      <trkpt lat="45.40988" lon="5.79713">
        <ele>1152</ele>
        <time>2008-10-25T09:22:40Z</time>
      </trkpt>
      <trkpt lat="45.40946" lon="5.79698">
        <ele>1156</ele>
        <time>2008-10-25T09:23:03Z</time>
      </trkpt>
      <trkpt lat="45.40896" lon="5.79685">
        <ele>1158</ele>
        <time>2008-10-25T09:23:28Z</time>
      </trkpt>
      <trkpt lat="45.40855" lon="5.79658">
        <ele>1159</ele>
        <time>2008-10-25T09:23:52Z</time>
      </trkpt>
      <trkpt lat="45.40817" lon="5.79625">
        <ele>1165</ele>
        <time>2008-10-25T09:24:16Z</time>
      </trkpt>
      <trkpt lat="45.40787" lon="5.79591">
        <ele>1168</ele>
        <time>2008-10-25T09:24:38Z</time>
      </trkpt>
      <trkpt lat="45.40763" lon="5.79561">
        <ele>1167</ele>
        <time>2008-10-25T09:24:57Z</time>
      </trkpt>
      <trkpt lat="45.40729" lon="5.79529">
        <ele>1169</ele>
        <time>2008-10-25T09:25:23Z</time>
      </trkpt>
      <trkpt lat="45.40692" lon="5.79475">
        <ele>1172</ele>
        <time>2008-10-25T09:25:56Z</time>
      </trkpt>
      <trkpt lat="45.40673" lon="5.79415">
        <ele>1178</ele>
        <time>2008-10-25T09:26:24Z</time>
      </trkpt>
      <trkpt lat="45.40695" lon="5.79374">
        <ele>1184</ele>
        <time>2008-10-25T09:26:46Z</time>
      </trkpt>
      <trkpt lat="45.40699" lon="5.79331">
        <ele>1187</ele>
        <time>2008-10-25T09:27:06Z</time>
      </trkpt>
      <trkpt lat="45.40677" lon="5.79286">
        <ele>1191</ele>
        <time>2008-10-25T09:27:26Z</time>
      </trkpt>
      <trkpt lat="45.40656" lon="5.79233">
        <ele>1196</ele>
        <time>2008-10-25T09:27:50Z</time>
      </trkpt>
      <trkpt lat="45.40641" lon="5.79181">
        <ele>1199</ele>
        <time>2008-10-25T09:28:13Z</time>
      </trkpt>
      <trkpt lat="45.40611" lon="5.7914">
        <ele>1202</ele>
        <time>2008-10-25T09:28:32Z</time>
      </trkpt>
      <trkpt lat="45.40559" lon="5.79098">
        <ele>1204</ele>
        <time>2008-10-25T09:28:58Z</time>
      </trkpt>
      <trkpt lat="45.40501" lon="5.79091">
        <ele>1206</ele>
        <time>2008-10-25T09:29:20Z</time>
      </trkpt>
      <trkpt lat="45.40443" lon="5.7907">
        <ele>1207</ele>
        <time>2008-10-25T09:29:41Z</time>
      </trkpt>
      <trkpt lat="45.40383" lon="5.79046">
        <ele>1207</ele>
        <time>2008-10-25T09:30:01Z</time>
      </trkpt>
      <trkpt lat="45.40379" lon="5.79044">
        <ele>1207</ele>
        <time>2008-10-25T09:30:12Z</time>
      </trkpt>
      <trkpt lat="45.40381" lon="5.79044">
        <ele>1209</ele>
        <time>2008-10-25T09:30:42Z</time>
      </trkpt>
      <trkpt lat="45.40373" lon="5.79037">
        <ele>1214</ele>
        <time>2008-10-25T09:31:57Z</time>
      </trkpt>
      <trkpt lat="45.4036" lon="5.79044">
        <ele>1212</ele>
        <time>2008-10-25T09:32:04Z</time>
      </trkpt>
      <trkpt lat="45.40319" lon="5.79055">
        <ele>1209</ele>
        <time>2008-10-25T09:32:17Z</time>
      </trkpt>
      <trkpt lat="45.40317" lon="5.79061">
        <ele>1210</ele>
        <time>2008-10-25T09:32:28Z</time>
      </trkpt>
      <trkpt lat="45.40317" lon="5.79061">
        <ele>1211</ele>
        <time>2008-10-25T09:32:47Z</time>
      </trkpt>
      <trkpt lat="45.40317" lon="5.79061">
        <ele>1211</ele>
        <time>2008-10-25T09:33:39Z</time>
      </trkpt>
      <trkpt lat="45.40315" lon="5.79059">
        <ele>1209</ele>
        <time>2008-10-25T09:35:31Z</time>
      </trkpt>
      <trkpt lat="45.40317" lon="5.79061">
        <ele>1206</ele>
        <time>2008-10-25T09:36:28Z</time>
      </trkpt>
      <trkpt lat="45.40315" lon="5.79059">
        <ele>1205</ele>
        <time>2008-10-25T09:36:49Z</time>
      </trkpt>
      <trkpt lat="45.40315" lon="5.79059">
        <ele>1209</ele>
        <time>2008-10-25T09:37:30Z</time>
      </trkpt>
      <trkpt lat="45.40317" lon="5.79057">
        <ele>1211</ele>
        <time>2008-10-25T09:38:03Z</time>
      </trkpt>
      <trkpt lat="45.40319" lon="5.79055">
        <ele>1211</ele>
        <time>2008-10-25T09:38:25Z</time>
      </trkpt>
      <trkpt lat="45.4031" lon="5.79055">
        <ele>1211</ele>
        <time>2008-10-25T09:38:30Z</time>
      </trkpt>
      <trkpt lat="45.40304" lon="5.79052">
        <ele>1211</ele>
        <time>2008-10-25T09:38:33Z</time>
      </trkpt>
      <trkpt lat="45.40304" lon="5.79055">
        <ele>1213</ele>
        <time>2008-10-25T09:38:51Z</time>
      </trkpt>
      <trkpt lat="45.40302" lon="5.79055">
        <ele>1213</ele>
        <time>2008-10-25T09:38:56Z</time>
      </trkpt>
      <trkpt lat="45.40272" lon="5.79031">
        <ele>1212</ele>
        <time>2008-10-25T09:39:09Z</time>
      </trkpt>
      <trkpt lat="45.40227" lon="5.79003">
        <ele>1214</ele>
        <time>2008-10-25T09:39:27Z</time>
      </trkpt>
      <trkpt lat="45.40165" lon="5.78932">
        <ele>1213</ele>
        <time>2008-10-25T09:39:50Z</time>
      </trkpt>
      <trkpt lat="45.40134" lon="5.78849">
        <ele>1216</ele>
        <time>2008-10-25T09:40:09Z</time>
      </trkpt>
      <trkpt lat="45.40113" lon="5.78789">
        <ele>1216</ele>
        <time>2008-10-25T09:40:27Z</time>
      </trkpt>
      <trkpt lat="45.40072" lon="5.78739">
        <ele>1218</ele>
        <time>2008-10-25T09:40:49Z</time>
      </trkpt>
      <trkpt lat="45.40021" lon="5.78668">
        <ele>1219</ele>
        <time>2008-10-25T09:41:16Z</time>
      </trkpt>
      <trkpt lat="45.39956" lon="5.78593">
        <ele>1224</ele>
        <time>2008-10-25T09:41:47Z</time>
      </trkpt>
      <trkpt lat="45.39935" lon="5.7857">
        <ele>1225</ele>
        <time>2008-10-25T09:41:56Z</time>
      </trkpt>
      <trkpt lat="45.39926" lon="5.78555">
        <ele>1224</ele>
        <time>2008-10-25T09:42:00Z</time>
      </trkpt>
      <trkpt lat="45.39905" lon="5.7849">
        <ele>1229</ele>
        <time>2008-10-25T09:42:16Z</time>
      </trkpt>
      <trkpt lat="45.39892" lon="5.7837">
        <ele>1234</ele>
        <time>2008-10-25T09:42:44Z</time>
      </trkpt>
      <trkpt lat="45.39879" lon="5.78284">
        <ele>1235</ele>
        <time>2008-10-25T09:43:10Z</time>
      </trkpt>
      <trkpt lat="45.39862" lon="5.78246">
        <ele>1242</ele>
        <time>2008-10-25T09:43:29Z</time>
      </trkpt>
      <trkpt lat="45.39825" lon="5.78192">
        <ele>1248</ele>
        <time>2008-10-25T09:43:54Z</time>
      </trkpt>
      <trkpt lat="45.39763" lon="5.78153">
        <ele>1249</ele>
        <time>2008-10-25T09:44:21Z</time>
      </trkpt>
      <trkpt lat="45.39697" lon="5.78132">
        <ele>1249</ele>
        <time>2008-10-25T09:44:41Z</time>
      </trkpt>
      <trkpt lat="45.39667" lon="5.7813">
        <ele>1249</ele>
        <time>2008-10-25T09:44:47Z</time>
      </trkpt>
      <trkpt lat="45.39583" lon="5.7813">
        <ele>1246</ele>
        <time>2008-10-25T09:44:59Z</time>
      </trkpt>
      <trkpt lat="45.39527" lon="5.78179">
        <ele>1244</ele>
        <time>2008-10-25T09:45:08Z</time>
      </trkpt>
      <trkpt lat="45.3945" lon="5.78276">
        <ele>1240</ele>
        <time>2008-10-25T09:45:26Z</time>
      </trkpt>
      <trkpt lat="45.3942" lon="5.78297">
        <ele>1239</ele>
        <time>2008-10-25T09:45:33Z</time>
      </trkpt>
      <trkpt lat="45.39321" lon="5.78327">
        <ele>1246</ele>
        <time>2008-10-25T09:45:56Z</time>
      </trkpt>
      <trkpt lat="45.39265" lon="5.78344">
        <ele>1248</ele>
        <time>2008-10-25T09:46:11Z</time>
      </trkpt>
      <trkpt lat="45.39214" lon="5.78347">
        <ele>1250</ele>
        <time>2008-10-25T09:46:27Z</time>
      </trkpt>
      <trkpt lat="45.39182" lon="5.78336">
        <ele>1253</ele>
        <time>2008-10-25T09:46:40Z</time>
      </trkpt>
      <trkpt lat="45.39169" lon="5.78293">
        <ele>1255</ele>
        <time>2008-10-25T09:46:52Z</time>
      </trkpt>
      <trkpt lat="45.39167" lon="5.78246">
        <ele>1256</ele>
        <time>2008-10-25T09:47:11Z</time>
      </trkpt>
      <trkpt lat="45.39158" lon="5.78231">
        <ele>1258</ele>
        <time>2008-10-25T09:47:41Z</time>
      </trkpt>
      <trkpt lat="45.3915" lon="5.78216">
        <ele>1263</ele>
        <time>2008-10-25T09:47:58Z</time>
      </trkpt>
      <trkpt lat="45.39147" lon="5.78214">
        <ele>1264</ele>
        <time>2008-10-25T09:48:03Z</time>
      </trkpt>
      <trkpt lat="45.39139" lon="5.78203">
        <ele>1266</ele>
        <time>2008-10-25T09:48:17Z</time>
      </trkpt>
      <trkpt lat="45.3913" lon="5.78198">
        <ele>1267</ele>
        <time>2008-10-25T09:48:30Z</time>
      </trkpt>
      <trkpt lat="45.39128" lon="5.78196">
        <ele>1267</ele>
        <time>2008-10-25T09:48:47Z</time>
      </trkpt>
      <trkpt lat="45.3912" lon="5.78192">
        <ele>1270</ele>
        <time>2008-10-25T09:49:00Z</time>
      </trkpt>
      <trkpt lat="45.39113" lon="5.7819">
        <ele>1273</ele>
        <time>2008-10-25T09:49:13Z</time>
      </trkpt>
      <trkpt lat="45.39098" lon="5.78183">
        <ele>1279</ele>
        <time>2008-10-25T09:49:31Z</time>
      </trkpt>
      <trkpt lat="45.39066" lon="5.78173">
        <ele>1282</ele>
        <time>2008-10-25T09:50:13Z</time>
      </trkpt>
      <trkpt lat="45.39042" lon="5.78168">
        <ele>1290</ele>
        <time>2008-10-25T09:50:41Z</time>
      </trkpt>
      <trkpt lat="45.39014" lon="5.78162">
        <ele>1293</ele>
        <time>2008-10-25T09:51:04Z</time>
      </trkpt>
      <trkpt lat="45.38993" lon="5.78149">
        <ele>1297</ele>
        <time>2008-10-25T09:51:29Z</time>
      </trkpt>
      <trkpt lat="45.38974" lon="5.78149">
        <ele>1299</ele>
        <time>2008-10-25T09:51:47Z</time>
      </trkpt>
      <trkpt lat="45.38944" lon="5.78145">
        <ele>1305</ele>
        <time>2008-10-25T09:52:16Z</time>
      </trkpt>
      <trkpt lat="45.38937" lon="5.78143">
        <ele>1302</ele>
        <time>2008-10-25T09:52:29Z</time>
      </trkpt>
      <trkpt lat="45.38909" lon="5.78119">
        <ele>1310</ele>
        <time>2008-10-25T09:52:52Z</time>
      </trkpt>
      <trkpt lat="45.38886" lon="5.78095">
        <ele>1311</ele>
        <time>2008-10-25T09:53:10Z</time>
      </trkpt>
      <trkpt lat="45.38877" lon="5.78089">
        <ele>1309</ele>
        <time>2008-10-25T09:53:22Z</time>
      </trkpt>
      <trkpt lat="45.38868" lon="5.78089">
        <ele>1310</ele>
        <time>2008-10-25T09:53:32Z</time>
      </trkpt>
      <trkpt lat="45.38841" lon="5.78078">
        <ele>1314</ele>
        <time>2008-10-25T09:53:57Z</time>
      </trkpt>
      <trkpt lat="45.38832" lon="5.78074">
        <ele>1316</ele>
        <time>2008-10-25T09:54:06Z</time>
      </trkpt>
      <trkpt lat="45.38804" lon="5.78065">
        <ele>1322</ele>
        <time>2008-10-25T09:54:36Z</time>
      </trkpt>
      <trkpt lat="45.38791" lon="5.78061">
        <ele>1325</ele>
        <time>2008-10-25T09:54:56Z</time>
      </trkpt>
      <trkpt lat="45.38774" lon="5.78059">
        <ele>1332</ele>
        <time>2008-10-25T09:55:23Z</time>
      </trkpt>
      <trkpt lat="45.38757" lon="5.78057">
        <ele>1331</ele>
        <time>2008-10-25T09:55:46Z</time>
      </trkpt>
      <trkpt lat="45.3874" lon="5.78055">
        <ele>1333</ele>
        <time>2008-10-25T09:56:08Z</time>
      </trkpt>
      <trkpt lat="45.3872" lon="5.78053">
        <ele>1336</ele>
        <time>2008-10-25T09:56:30Z</time>
      </trkpt>
      <trkpt lat="45.38697" lon="5.7804">
        <ele>1342</ele>
        <time>2008-10-25T09:56:56Z</time>
      </trkpt>
      <trkpt lat="45.38675" lon="5.78029">
        <ele>1345</ele>
        <time>2008-10-25T09:57:16Z</time>
      </trkpt>
      <trkpt lat="45.38658" lon="5.78018">
        <ele>1344</ele>
        <time>2008-10-25T09:57:36Z</time>
      </trkpt>
      <trkpt lat="45.38647" lon="5.78014">
        <ele>1348</ele>
        <time>2008-10-25T09:57:49Z</time>
      </trkpt>
      <trkpt lat="45.3862" lon="5.77992">
        <ele>1353</ele>
        <time>2008-10-25T09:58:10Z</time>
      </trkpt>
      <trkpt lat="45.38592" lon="5.7798">
        <ele>1353</ele>
        <time>2008-10-25T09:58:31Z</time>
      </trkpt>
      <trkpt lat="45.38557" lon="5.77969">
        <ele>1355</ele>
        <time>2008-10-25T09:58:56Z</time>
      </trkpt>
      <trkpt lat="45.38527" lon="5.7796">
        <ele>1358</ele>
        <time>2008-10-25T09:59:17Z</time>
      </trkpt>
      <trkpt lat="45.38489" lon="5.77954">
        <ele>1364</ele>
        <time>2008-10-25T09:59:42Z</time>
      </trkpt>
      <trkpt lat="45.38484" lon="5.77952">
        <ele>1367</ele>
        <time>2008-10-25T10:00:01Z</time>
      </trkpt>
      <trkpt lat="45.38465" lon="5.77956">
        <ele>1369</ele>
        <time>2008-10-25T10:00:44Z</time>
      </trkpt>
      <trkpt lat="45.38422" lon="5.77945">
        <ele>1371</ele>
        <time>2008-10-25T10:01:09Z</time>
      </trkpt>
      <trkpt lat="45.38384" lon="5.77932">
        <ele>1376</ele>
        <time>2008-10-25T10:01:35Z</time>
      </trkpt>
      <trkpt lat="45.38349" lon="5.77922">
        <ele>1376</ele>
        <time>2008-10-25T10:01:58Z</time>
      </trkpt>
      <trkpt lat="45.38304" lon="5.7793">
        <ele>1380</ele>
        <time>2008-10-25T10:02:24Z</time>
      </trkpt>
      <trkpt lat="45.38257" lon="5.77922">
        <ele>1381</ele>
        <time>2008-10-25T10:02:51Z</time>
      </trkpt>
      <trkpt lat="45.38208" lon="5.77909">
        <ele>1383</ele>
        <time>2008-10-25T10:03:15Z</time>
      </trkpt>
      <trkpt lat="45.38182" lon="5.77909">
        <ele>1388</ele>
        <time>2008-10-25T10:03:32Z</time>
      </trkpt>
      <trkpt lat="45.38154" lon="5.77937">
        <ele>1388</ele>
        <time>2008-10-25T10:03:55Z</time>
      </trkpt>
      <trkpt lat="45.38117" lon="5.77947">
        <ele>1391</ele>
        <time>2008-10-25T10:04:16Z</time>
      </trkpt>
      <trkpt lat="45.38081" lon="5.77939">
        <ele>1395</ele>
        <time>2008-10-25T10:04:39Z</time>
      </trkpt>
      <trkpt lat="45.38049" lon="5.77939">
        <ele>1398</ele>
        <time>2008-10-25T10:05:04Z</time>
      </trkpt>
      <trkpt lat="45.38019" lon="5.77943">
        <ele>1399</ele>
        <time>2008-10-25T10:05:31Z</time>
      </trkpt>
      <trkpt lat="45.38002" lon="5.77943">
        <ele>1400</ele>
        <time>2008-10-25T10:05:54Z</time>
      </trkpt>
      <trkpt lat="45.37997" lon="5.77941">
        <ele>1403</ele>
        <time>2008-10-25T10:06:06Z</time>
      </trkpt>
      <trkpt lat="45.37978" lon="5.77937">
        <ele>1408</ele>
        <time>2008-10-25T10:06:28Z</time>
      </trkpt>
      <trkpt lat="45.37963" lon="5.77935">
        <ele>1410</ele>
        <time>2008-10-25T10:06:46Z</time>
      </trkpt>
      <trkpt lat="45.37952" lon="5.77932">
        <ele>1410</ele>
        <time>2008-10-25T10:07:07Z</time>
      </trkpt>
      <trkpt lat="45.37942" lon="5.77926">
        <ele>1410</ele>
        <time>2008-10-25T10:07:28Z</time>
      </trkpt>
      <trkpt lat="45.37929" lon="5.77905">
        <ele>1414</ele>
        <time>2008-10-25T10:07:50Z</time>
      </trkpt>
      <trkpt lat="45.37916" lon="5.77889">
        <ele>1418</ele>
        <time>2008-10-25T10:08:05Z</time>
      </trkpt>
      <trkpt lat="45.37899" lon="5.77866">
        <ele>1420</ele>
        <time>2008-10-25T10:08:27Z</time>
      </trkpt>
      <trkpt lat="45.37892" lon="5.77857">
        <ele>1421</ele>
        <time>2008-10-25T10:08:35Z</time>
      </trkpt>
      <trkpt lat="45.37875" lon="5.77855">
        <ele>1426</ele>
        <time>2008-10-25T10:08:52Z</time>
      </trkpt>
      <trkpt lat="45.37862" lon="5.77842">
        <ele>1430</ele>
        <time>2008-10-25T10:09:08Z</time>
      </trkpt>
      <trkpt lat="45.37854" lon="5.77829">
        <ele>1433</ele>
        <time>2008-10-25T10:09:26Z</time>
      </trkpt>
      <trkpt lat="45.37856" lon="5.77829">
        <ele>1435</ele>
        <time>2008-10-25T10:09:40Z</time>
      </trkpt>
      <trkpt lat="45.37856" lon="5.77827">
        <ele>1442</ele>
        <time>2008-10-25T10:10:38Z</time>
      </trkpt>
      <trkpt lat="45.37856" lon="5.77825">
        <ele>1443</ele>
        <time>2008-10-25T10:10:40Z</time>
      </trkpt>
      <trkpt lat="45.37851" lon="5.77812">
        <ele>1441</ele>
        <time>2008-10-25T10:10:49Z</time>
      </trkpt>
    </trkseg>
  </trk>
</gpx>